KDCA/DCA METAR and TAF weather

Enter ICAO airport designator
Station Type Date Time Source
KDCA METAR 2022/06/28 07:52 UTC NOAA

KDCA 280752Z 33006KT 10SM CLR 19/09 A3012 RMK AO2 SLP200 T01890089


Station Type Date Time Source
KDCA Decoded METAR 2022/06/28 07:52 UTC NOAA

WASHINGTON NATIONAL AIRPORT , VA, United States (KDCA) 38-51N 077-02W 18M
Jun 28, 2022 - 03:52 AM EDT / 2022.06.28 0752 UTC
Wind: from the NNW (330 degrees) at 7 MPH (6 KT):0
Visibility: 10 mile(s):0
Sky conditions: clear
Temperature: 66.0 F (18.9 C)
Dew Point: 48.0 F (8.9 C)
Relative Humidity: 52%
Pressure (altimeter): 30.12 in. Hg (1019 hPa)
ob: KDCA 280752Z 33006KT 10SM CLR 19/09 A3012 RMK AO2 SLP200 T01890089
cycle: 8

Station Type Date Time Source
KDCA TAF 2022/06/28 06:45 UTC NOAA

TAF KDCA 280542Z 2806/2912 33009KT P6SM SKC
FM281500 34006KT P6SM FEW050 SCT250
FM290000 09003KT P6SM FEW050 SCT250

Example: see airport list